createdAt,value
2018-11-07T00:00:37.683Z,99.43
2018-11-07T00:03:08.182Z,99.52
2018-11-07T00:05:37.495Z,99.57
2018-11-07T00:08:06.828Z,99.67
2018-11-07T00:10:51.183Z,99.63
2018-11-07T00:13:20.458Z,99.88
2018-11-07T00:15:49.965Z,99.53
2018-11-07T00:18:19.461Z,99.07
2018-11-07T00:20:48.738Z,99.18
2018-11-07T00:23:18.257Z,99.33
2018-11-07T00:25:47.548Z,99.15
2018-11-07T00:28:17.106Z,99.18
2018-11-07T00:30:46.374Z,99.09
2018-11-07T00:33:15.913Z,99.42
2018-11-07T00:35:45.189Z,99.11
2018-11-07T00:38:14.475Z,99.68
2018-11-07T00:40:44.042Z,99.44
2018-11-07T00:43:13.322Z,99.19
2018-11-07T00:45:42.615Z,98.80
2018-11-07T00:48:12.091Z,98.93
2018-11-07T00:50:41.378Z,99.22
2018-11-07T00:53:11.146Z,98.85
2018-11-07T00:55:40.421Z,98.74
2018-11-07T00:58:09.715Z,98.73
2018-11-07T01:00:39.433Z,98.86
2018-11-07T01:03:09.088Z,98.94
2018-11-07T01:05:38.545Z,98.92
2018-11-07T01:08:08.758Z,98.26
2018-11-07T01:10:40.070Z,98.71
2018-11-07T01:13:09.730Z,98.03
2018-11-07T01:15:39.109Z,98.27
2018-11-07T01:18:08.414Z,98.36
2018-11-07T01:20:38.002Z,98.15
2018-11-07T01:23:08.397Z,98.18
2018-11-07T01:25:38.803Z,98.46
2018-11-07T01:28:08.683Z,98.38
2018-11-07T01:30:38.115Z,97.92
2018-11-07T01:33:08.081Z,97.70
2018-11-07T01:35:37.371Z,98.17
2018-11-07T01:38:06.307Z,97.61
2018-11-07T01:40:36.134Z,98.11
2018-11-07T01:43:05.414Z,98.31
2018-11-07T01:45:34.703Z,98.13
2018-11-07T01:48:03.881Z,98.04
2018-11-07T01:50:33.143Z,98.33
2018-11-07T01:53:02.424Z,98.45
2018-11-07T01:55:31.354Z,98.92
2018-11-07T01:58:00.632Z,99.07
2018-11-07T02:00:29.897Z,98.91
2018-11-07T02:02:59.205Z,99.37
2018-11-07T02:05:28.787Z,99.46
2018-11-07T02:07:58.366Z,99.60
2018-11-07T02:10:27.650Z,99.48
2018-11-07T02:12:57.173Z,99.38
2018-11-07T02:15:26.654Z,98.73
2018-11-07T02:17:56.209Z,99.39
2018-11-07T02:20:26.249Z,99.69
2018-11-07T02:22:55.518Z,99.86
2018-11-07T02:25:24.785Z,99.89
2018-11-07T02:27:54.620Z,100.00
2018-11-07T02:30:24.179Z,100.00
2018-11-07T02:32:53.658Z,100.00
2018-11-07T02:35:23.814Z,100.00
2018-11-07T02:37:53.378Z,100.00
2018-11-07T02:40:22.650Z,100.00
2018-11-07T02:42:52.225Z,99.88
2018-11-07T02:45:21.506Z,100.00
2018-11-07T02:47:50.788Z,99.93
2018-11-07T02:50:20.528Z,99.77
2018-11-07T02:52:49.793Z,99.49
2018-11-07T02:55:19.367Z,99.47
2018-11-07T02:57:48.638Z,99.47
2018-11-07T03:00:18.570Z,99.55
2018-11-07T03:02:48.189Z,99.40
2018-11-07T03:05:17.724Z,99.26
2018-11-07T03:07:47.027Z,99.66
2018-11-07T03:10:17.397Z,99.31
2018-11-07T03:12:47.241Z,99.33
2018-11-07T03:15:16.846Z,99.66
2018-11-07T03:17:46.343Z,99.68
2018-11-07T03:20:15.910Z,100.00
2018-11-07T03:22:45.506Z,100.00
2018-11-07T03:25:14.795Z,100.00
2018-11-07T03:27:44.401Z,100.00
2018-11-07T03:30:13.952Z,100.00
2018-11-07T03:32:43.438Z,99.74
2018-11-07T03:35:12.654Z,99.36
2018-11-07T03:37:41.925Z,99.04
2018-11-07T03:40:11.489Z,98.88
2018-11-07T03:42:40.992Z,98.97
2018-11-07T03:45:09.981Z,98.65
2018-11-07T03:47:39.446Z,98.93
2018-11-07T03:50:08.554Z,98.68
2018-11-07T03:52:37.839Z,98.38
2018-11-07T03:55:08.480Z,98.49
2018-11-07T03:57:37.966Z,98.55
2018-11-07T04:00:08.025Z,98.56
2018-11-07T04:02:49.790Z,98.76
2018-11-07T04:05:25.454Z,98.28
2018-11-07T04:07:54.941Z,98.08
2018-11-07T04:10:24.516Z,98.12
2018-11-07T04:12:53.793Z,98.14
2018-11-07T04:15:23.334Z,98.45
2018-11-07T04:17:52.593Z,98.24
2018-11-07T04:20:21.875Z,98.22
2018-11-07T04:22:51.153Z,98.47
2018-11-07T04:33:06.026Z,97.75
2018-11-07T04:35:35.599Z,98.19
2018-11-07T04:38:04.174Z,98.84
2018-11-07T04:40:33.641Z,98.97
2018-11-07T04:43:02.918Z,98.88
2018-11-07T04:45:32.474Z,98.54
2018-11-07T04:48:01.741Z,98.63
2018-11-07T04:50:31.021Z,98.37
2018-11-07T04:53:00.326Z,98.58
2018-11-07T04:55:29.718Z,98.52
2018-11-07T04:57:58.989Z,98.44
2018-11-07T05:00:28.214Z,98.45
2018-11-07T05:02:57.612Z,98.67
2018-11-07T05:05:26.767Z,98.21
2018-11-07T05:07:56.235Z,98.21
2018-11-07T05:10:25.734Z,98.78
2018-11-07T05:12:54.707Z,98.46
2018-11-07T05:15:24.194Z,98.42
2018-11-07T05:17:53.601Z,98.49
2018-11-07T05:20:23.158Z,98.49
2018-11-07T05:22:52.741Z,98.49
2018-11-07T05:25:22.010Z,98.45
2018-11-07T05:27:51.585Z,98.39
2018-11-07T05:30:21.005Z,98.43
2018-11-07T05:32:51.926Z,98.36
2018-11-07T05:35:21.619Z,97.79
2018-11-07T05:37:51.093Z,98.47
2018-11-07T05:40:20.965Z,98.51
2018-11-07T05:42:50.245Z,98.65
2018-11-07T05:45:19.811Z,98.26
2018-11-07T05:47:49.286Z,98.27
2018-11-07T05:50:19.403Z,97.47
2018-11-07T05:52:48.886Z,96.61
2018-11-07T05:55:18.254Z,96.78
2018-11-07T05:57:47.813Z,96.51
2018-11-07T06:00:17.094Z,96.25
2018-11-07T06:02:46.669Z,96.28
2018-11-07T06:05:16.258Z,96.43
2018-11-07T06:07:45.880Z,96.25
2018-11-07T06:10:15.150Z,96.02
2018-11-07T06:12:44.726Z,96.25
2018-11-07T06:15:13.994Z,96.21
2018-11-07T06:17:43.291Z,96.47
2018-11-07T06:20:13.026Z,96.21
2018-11-07T06:22:42.290Z,96.15
2018-11-07T06:25:11.950Z,96.37
2018-11-07T06:27:41.220Z,96.62
2018-11-07T06:30:11.069Z,96.43
2018-11-07T06:32:40.341Z,97.08
2018-11-07T06:35:09.334Z,96.84
2018-11-07T06:37:38.903Z,96.72
2018-11-07T06:40:09.002Z,96.65
2018-11-07T06:42:37.933Z,96.80
2018-11-07T06:45:06.610Z,97.02
2018-11-07T06:47:35.837Z,97.19
2018-11-07T06:50:04.442Z,97.32
2018-11-07T06:52:33.984Z,97.94
2018-11-07T06:55:03.295Z,98.04
2018-11-07T06:57:33.079Z,97.83
2018-11-07T07:00:02.378Z,98.21
2018-11-07T07:02:31.865Z,97.91
2018-11-07T07:05:01.622Z,97.36
2018-11-07T07:07:31.066Z,97.57
2018-11-07T07:10:00.339Z,97.67
2018-11-07T07:12:29.931Z,97.35
2018-11-07T07:14:59.129Z,97.45
2018-11-07T07:17:28.464Z,97.17
2018-11-07T07:19:58.142Z,97.46
2018-11-07T07:22:27.410Z,97.31
2018-11-07T07:24:56.994Z,97.11
2018-11-07T07:27:26.266Z,96.16
2018-11-07T07:29:56.212Z,94.79
2018-11-07T07:32:25.635Z,94.01
2018-11-07T07:34:55.205Z,93.86
2018-11-07T07:37:24.494Z,93.42
2018-11-07T07:39:53.950Z,93.57
2018-11-07T07:42:23.683Z,93.80
2018-11-07T07:44:53.230Z,94.32
2018-11-07T07:47:23.307Z,94.90
2018-11-07T07:49:53.322Z,93.97
2018-11-07T07:52:22.388Z,93.03
2018-11-07T07:54:52.056Z,90.25
2018-11-07T07:57:21.093Z,87.88
2018-11-07T07:59:50.358Z,84.28
2018-11-07T08:02:19.350Z,82.92
2018-11-07T08:04:49.100Z,80.54
2018-11-07T08:07:18.383Z,80.60
2018-11-07T08:09:47.934Z,80.34
2018-11-07T08:12:17.314Z,79.41
2018-11-07T08:14:46.549Z,78.86
2018-11-07T08:17:16.277Z,78.78
2018-11-07T08:19:45.545Z,77.53
2018-11-07T08:22:15.102Z,74.92
2018-11-07T08:24:44.043Z,73.37
2018-11-07T08:27:12.986Z,72.51
2018-11-07T08:29:42.246Z,72.76
2018-11-07T08:32:11.530Z,71.65
2018-11-07T08:34:41.114Z,71.37
2018-11-07T08:37:10.563Z,71.16
2018-11-07T08:39:40.122Z,71.75
2018-11-07T08:42:09.966Z,71.15
2018-11-07T08:44:39.380Z,70.16
2018-11-07T08:47:10.630Z,69.28
2018-11-07T08:49:40.465Z,69.71
2018-11-07T08:52:09.694Z,69.54
2018-11-07T08:54:38.989Z,69.29
2018-11-07T08:57:09.226Z,69.18
2018-11-07T08:59:38.209Z,69.01
2018-11-07T09:02:07.512Z,67.84
2018-11-07T09:04:37.257Z,66.55
2018-11-07T09:07:06.209Z,66.43
2018-11-07T09:09:35.158Z,65.82
2018-11-07T09:12:03.940Z,64.95
2018-11-07T09:14:33.361Z,64.70
2018-11-07T09:17:02.619Z,65.55
2018-11-07T09:19:32.706Z,65.75
2018-11-07T09:22:02.257Z,64.32
2018-11-07T09:24:31.556Z,63.28
2018-11-07T09:27:01.477Z,63.75
2018-11-07T09:29:30.739Z,62.41
2018-11-07T09:32:00.043Z,62.61
2018-11-07T09:34:29.518Z,61.29
2018-11-07T09:36:58.790Z,60.81
2018-11-07T09:39:28.547Z,61.28
2018-11-07T09:41:58.310Z,60.25
2018-11-07T09:44:27.578Z,59.76
2018-11-07T09:46:56.494Z,59.49
2018-11-07T09:49:25.761Z,57.81
2018-11-07T09:51:55.242Z,57.54
2018-11-07T09:54:24.349Z,58.12
2018-11-07T09:56:53.703Z,55.87
2018-11-07T09:59:23.563Z,56.92
2018-11-07T10:01:52.697Z,55.63
2018-11-07T10:04:22.444Z,54.99
2018-11-07T10:06:51.709Z,55.28
2018-11-07T10:09:21.274Z,55.34
2018-11-07T10:11:50.538Z,57.04
2018-11-07T10:14:19.803Z,57.54
2018-11-07T10:16:49.369Z,56.06
2018-11-07T10:19:18.913Z,57.25
2018-11-07T10:21:48.346Z,55.74
2018-11-07T10:24:17.650Z,56.82
2018-11-07T10:26:46.669Z,56.55
2018-11-07T10:29:16.858Z,54.89
2018-11-07T10:31:45.874Z,55.68
2018-11-07T10:34:15.437Z,53.07
2018-11-07T10:36:44.703Z,53.53
2018-11-07T10:39:13.934Z,54.59
2018-11-07T10:41:43.631Z,54.71
2018-11-07T10:44:13.252Z,53.71
2018-11-07T10:46:42.438Z,54.90
2018-11-07T10:49:12.150Z,55.78
2018-11-07T10:51:41.477Z,53.88
2018-11-07T10:54:11.502Z,54.61
2018-11-07T10:56:40.533Z,52.39
2018-11-07T10:59:09.846Z,52.29
2018-11-07T11:01:38.810Z,53.65
2018-11-07T11:04:09.414Z,52.97
2018-11-07T11:06:38.690Z,54.17
2018-11-07T11:09:07.621Z,54.79
2018-11-07T11:11:36.570Z,53.23
2018-11-07T11:14:05.493Z,51.99
2018-11-07T11:16:35.033Z,53.37
2018-11-07T11:19:04.470Z,50.88
2018-11-07T11:21:33.729Z,51.99
2018-11-07T11:24:03.112Z,52.30
2018-11-07T11:26:32.581Z,53.20
2018-11-07T11:29:01.838Z,53.35
2018-11-07T11:31:34.427Z,53.09
2018-11-07T11:34:03.738Z,53.38
2018-11-07T11:36:33.090Z,50.67
2018-11-07T11:39:02.555Z,51.53
2018-11-07T11:41:31.554Z,51.16
2018-11-07T11:44:07.218Z,51.72
2018-11-07T11:46:36.590Z,51.98
2018-11-07T11:49:06.229Z,52.77
2018-11-07T11:51:35.622Z,53.29
2018-11-07T11:54:04.310Z,49.81
2018-11-07T11:56:33.252Z,51.38
2018-11-07T11:59:02.838Z,51.67
2018-11-07T12:01:32.346Z,51.95
2018-11-07T12:04:01.875Z,50.46
2018-11-07T12:06:31.597Z,49.70
2018-11-07T12:09:01.079Z,50.03
2018-11-07T12:11:30.875Z,51.45
2018-11-07T12:14:00.333Z,50.36
2018-11-07T12:16:29.713Z,49.83
2018-11-07T12:18:58.988Z,49.16
2018-11-07T12:21:28.277Z,49.02
2018-11-07T12:23:57.790Z,48.26
2018-11-07T12:26:27.043Z,49.12
2018-11-07T12:28:56.314Z,49.37
2018-11-07T12:31:25.861Z,49.80
2018-11-07T12:34:02.533Z,49.86
2018-11-07T12:36:33.764Z,49.97
2018-11-07T12:39:02.703Z,48.67
2018-11-07T12:41:32.346Z,47.42
2018-11-07T12:44:01.790Z,48.91
2018-11-07T12:46:31.245Z,48.45
2018-11-07T12:49:00.385Z,47.66
2018-11-07T12:51:29.760Z,48.45
2018-11-07T12:53:59.103Z,48.28
2018-11-07T12:56:28.698Z,47.86
2018-11-07T12:58:57.967Z,47.65
2018-11-07T13:01:27.235Z,47.48
2018-11-07T13:03:56.719Z,46.95
2018-11-07T13:06:25.973Z,46.93
2018-11-07T13:08:54.918Z,47.46
2018-11-07T13:11:24.193Z,46.79
2018-11-07T13:13:53.869Z,46.76
2018-11-07T13:16:23.144Z,47.55
2018-11-07T13:18:52.454Z,47.14
2018-11-07T13:21:22.041Z,46.64
2018-11-07T13:23:51.614Z,47.45
2018-11-07T13:26:21.166Z,47.34
2018-11-07T13:28:50.502Z,48.19
2018-11-07T13:31:20.196Z,47.92
2018-11-07T13:33:49.757Z,48.60
2018-11-07T13:36:19.302Z,48.09
2018-11-07T13:38:49.524Z,48.06
2018-11-07T13:41:19.106Z,47.80
2018-11-07T13:43:48.370Z,48.14
2018-11-07T13:46:17.923Z,49.18
2018-11-07T13:48:47.196Z,49.61
2018-11-07T13:51:16.937Z,49.92
2018-11-07T13:53:46.213Z,50.02
2018-11-07T13:56:16.009Z,50.51
2018-11-07T13:58:45.285Z,51.03
2018-11-07T14:01:14.273Z,50.90
2018-11-07T14:03:43.494Z,49.80
2018-11-07T14:06:13.150Z,50.39
2018-11-07T14:08:42.086Z,50.17
2018-11-07T14:11:11.629Z,51.45
2018-11-07T14:13:40.773Z,52.27
2018-11-07T14:16:10.567Z,52.13
2018-11-07T14:18:39.962Z,53.21
2018-11-07T14:21:09.945Z,53.32
2018-11-07T14:23:39.221Z,53.25
2018-11-07T14:26:08.495Z,53.64
2018-11-07T14:28:37.769Z,53.92
2018-11-07T14:31:06.780Z,53.69
2018-11-07T14:33:35.707Z,54.27
2018-11-07T14:36:04.722Z,54.91
2018-11-07T14:38:34.399Z,54.81
2018-11-07T14:41:04.119Z,54.64
2018-11-07T14:43:33.889Z,55.27
2018-11-07T14:46:03.202Z,54.46
2018-11-07T14:48:32.974Z,55.62
2018-11-07T14:51:02.453Z,55.50
2018-11-07T14:53:31.980Z,56.41
2018-11-07T14:56:01.274Z,56.62
2018-11-07T14:58:30.521Z,57.63
2018-11-07T15:01:00.118Z,58.17
2018-11-07T15:03:29.382Z,58.47
2018-11-07T15:05:58.756Z,59.70
2018-11-07T15:08:28.263Z,60.28
2018-11-07T15:10:57.660Z,60.31
2018-11-07T15:13:26.918Z,60.68
2018-11-07T15:15:56.177Z,60.71
2018-11-07T15:18:35.590Z,60.76
2018-11-07T15:21:04.954Z,61.17
2018-11-07T15:23:34.061Z,61.72
2018-11-07T15:26:04.293Z,62.26
2018-11-07T15:28:33.588Z,62.98
2018-11-07T15:31:03.178Z,63.08
2018-11-07T15:33:32.442Z,63.71
2018-11-07T15:36:02.336Z,64.31
2018-11-07T15:38:31.759Z,64.80
2018-11-07T15:41:01.328Z,65.20
2018-11-07T15:43:31.200Z,65.55
2018-11-07T15:46:00.590Z,65.06
2018-11-07T15:48:29.995Z,65.41
2018-11-07T15:51:04.762Z,66.40
2018-11-07T15:53:34.138Z,65.89
2018-11-07T15:56:03.393Z,66.35
2018-11-07T15:58:32.683Z,66.49
2018-11-07T16:01:01.972Z,66.64
2018-11-07T16:03:31.561Z,66.92
2018-11-07T16:06:01.482Z,66.84
2018-11-07T16:08:30.955Z,67.07
2018-11-07T16:11:00.398Z,67.87
2018-11-07T16:13:29.727Z,67.16
2018-11-07T16:15:59.283Z,68.18
2018-11-07T16:18:28.556Z,67.68
2018-11-07T16:20:58.083Z,68.39
2018-11-07T16:23:27.913Z,67.90
2018-11-07T16:25:57.595Z,68.41
2018-11-07T16:28:26.756Z,68.43
2018-11-07T16:30:56.254Z,68.71
2018-11-07T16:33:25.779Z,68.78
2018-11-07T16:35:55.457Z,68.53
2018-11-07T16:38:25.494Z,69.15
2018-11-07T16:40:54.846Z,69.45
2018-11-07T16:43:25.122Z,69.78
2018-11-07T16:46:00.644Z,69.84
2018-11-07T16:48:32.330Z,70.37
2018-11-07T16:51:01.713Z,69.95
2018-11-07T16:53:31.278Z,69.96
2018-11-07T16:56:00.681Z,70.77
2018-11-07T16:58:30.438Z,70.23
2018-11-07T17:00:59.707Z,70.30
2018-11-07T17:03:29.297Z,70.07
2018-11-07T17:05:58.556Z,70.89
2018-11-07T17:08:28.133Z,71.08
2018-11-07T17:10:57.515Z,71.25
2018-11-07T17:13:27.067Z,70.78
2018-11-07T17:15:56.525Z,71.04
2018-11-07T17:18:26.309Z,71.59
2018-11-07T17:20:55.637Z,70.99
2018-11-07T17:23:25.654Z,71.88
2018-11-07T17:25:54.910Z,72.01
2018-11-07T17:28:24.134Z,71.54
2018-11-07T17:30:53.182Z,71.52
2018-11-07T17:33:22.693Z,72.20
2018-11-07T17:35:52.253Z,72.58
2018-11-07T17:38:21.704Z,72.17
2018-11-07T17:40:51.478Z,72.94
2018-11-07T17:43:20.739Z,72.52
2018-11-07T17:45:50.313Z,72.90
2018-11-07T17:48:19.961Z,73.02
2018-11-07T17:50:49.553Z,73.40
2018-11-07T17:53:19.097Z,73.43
2018-11-07T17:55:48.569Z,72.83
2018-11-07T17:58:17.870Z,72.88
2018-11-07T18:00:47.463Z,74.10
2018-11-07T18:03:16.805Z,73.95
2018-11-07T18:05:46.106Z,73.31
2018-11-07T18:08:15.658Z,72.98
2018-11-07T18:10:44.925Z,73.46
2018-11-07T18:13:14.511Z,72.99
2018-11-07T18:15:43.769Z,73.36
2018-11-07T18:18:13.033Z,72.95
2018-11-07T18:20:42.510Z,73.24
2018-11-07T18:23:24.089Z,73.28
2018-11-07T18:26:05.644Z,73.08
2018-11-07T18:28:45.150Z,73.44
2018-11-07T18:31:14.733Z,73.89
2018-11-07T18:33:44.038Z,73.79
2018-11-07T18:36:13.595Z,73.62
2018-11-07T18:38:42.698Z,73.35
2018-11-07T18:41:12.076Z,74.03
2018-11-07T18:43:41.723Z,73.44
2018-11-07T18:46:11.297Z,73.47
2018-11-07T18:48:41.450Z,73.91
2018-11-07T18:51:11.138Z,73.27
2018-11-07T18:53:40.776Z,73.02
2018-11-07T18:56:10.965Z,73.34
2018-11-07T18:58:40.317Z,72.90
2018-11-07T19:01:10.869Z,72.80
2018-11-07T19:03:40.170Z,72.68
2018-11-07T19:06:10.802Z,72.99
2018-11-07T19:08:40.098Z,72.85
2018-11-07T19:11:10.993Z,72.92
2018-11-07T19:13:42.050Z,73.05
2018-11-07T19:16:11.306Z,73.44
2018-11-07T19:18:40.766Z,73.18
2018-11-07T19:21:10.997Z,73.10
2018-11-07T19:23:40.819Z,73.02
2018-11-07T19:26:11.393Z,73.74
2018-11-07T19:28:40.879Z,73.62
2018-11-07T19:31:11.406Z,73.62
2018-11-07T19:33:40.886Z,73.62
2018-11-07T19:36:11.047Z,73.63
2018-11-07T19:38:40.078Z,74.03
2018-11-07T19:41:10.714Z,73.72
2018-11-07T19:43:40.027Z,73.84
2018-11-07T19:46:09.289Z,73.55
2018-11-07T19:48:38.730Z,73.60
2018-11-07T19:51:07.798Z,73.78
2018-11-07T19:53:37.103Z,73.46
2018-11-07T19:56:06.821Z,73.74
2018-11-07T19:58:35.790Z,73.51
2018-11-07T20:01:04.492Z,72.79
2018-11-07T20:03:33.982Z,73.59
2018-11-07T20:06:03.305Z,74.09
2018-11-07T20:08:32.990Z,74.15
2018-11-07T20:11:02.257Z,72.94
2018-11-07T20:13:31.845Z,73.75
2018-11-07T20:16:04.589Z,73.27
2018-11-07T20:18:33.849Z,73.59
2018-11-07T20:21:03.149Z,73.31
2018-11-07T20:23:32.607Z,73.10
2018-11-07T20:28:38.233Z,73.16
2018-11-07T20:31:07.866Z,73.26
2018-11-07T20:33:37.312Z,73.18
2018-11-07T20:36:06.942Z,73.31
2018-11-07T20:38:36.370Z,72.93
2018-11-07T20:41:05.585Z,73.13
2018-11-07T20:43:35.027Z,73.52
2018-11-07T20:46:03.955Z,73.59
2018-11-07T20:48:33.449Z,73.30
2018-11-07T20:51:03.082Z,72.85
2018-11-07T20:53:32.394Z,73.11
2018-11-07T20:56:01.427Z,73.40
2018-11-07T20:58:30.789Z,73.02
2018-11-07T21:01:00.088Z,73.85
2018-11-07T21:03:31.038Z,73.87
2018-11-07T21:06:00.306Z,74.08
2018-11-07T21:08:29.693Z,74.42
2018-11-07T21:10:58.812Z,75.09
2018-11-07T21:13:28.266Z,74.60
2018-11-07T21:15:58.162Z,75.33
2018-11-07T21:18:27.435Z,75.23
2018-11-07T21:20:57.001Z,75.14
2018-11-07T21:23:26.386Z,75.45
2018-11-07T21:25:55.938Z,75.78
2018-11-07T21:28:25.298Z,76.52
2018-11-07T21:30:54.628Z,76.08
2018-11-07T21:33:24.010Z,75.85
2018-11-07T21:35:53.293Z,76.34
2018-11-07T21:38:22.614Z,76.54
2018-11-07T21:40:51.900Z,75.59
2018-11-07T21:43:21.162Z,76.10
2018-11-07T21:45:50.429Z,75.14
2018-11-07T21:48:20.326Z,75.73
2018-11-07T21:50:49.880Z,76.02
2018-11-07T21:53:20.877Z,75.29
2018-11-07T21:55:50.206Z,76.05
2018-11-07T21:58:19.498Z,75.21
2018-11-07T22:00:49.050Z,75.48
2018-11-07T22:03:18.334Z,75.15
2018-11-07T22:05:47.602Z,75.56
2018-11-07T22:08:17.354Z,75.97
2018-11-07T22:10:46.954Z,75.12
2018-11-07T22:13:16.519Z,75.91
2018-11-07T22:15:45.811Z,75.45
2018-11-07T22:18:15.424Z,75.67
2018-11-07T22:20:45.161Z,76.14
2018-11-07T22:23:14.812Z,75.40
2018-11-07T22:25:45.110Z,75.72
2018-11-07T22:30:56.138Z,75.57
2018-11-07T22:33:25.788Z,75.25
2018-11-07T22:35:55.404Z,75.93
2018-11-07T22:38:24.932Z,75.44
2018-11-07T22:40:54.336Z,76.07
2018-11-07T22:43:23.620Z,76.65
2018-11-07T22:45:53.229Z,76.58
2018-11-07T22:48:22.678Z,76.79
2018-11-07T22:50:52.392Z,76.82
2018-11-07T22:53:22.199Z,77.29
2018-11-07T22:55:52.482Z,77.37
2018-11-07T22:58:34.294Z,77.21
2018-11-07T23:01:03.489Z,77.11
2018-11-07T23:03:35.806Z,78.16
2018-11-07T23:06:05.008Z,78.51
2018-11-07T23:08:34.285Z,78.40
2018-11-07T23:11:03.572Z,78.58
2018-11-07T23:13:32.843Z,78.43
2018-11-07T23:16:02.143Z,78.28
2018-11-07T23:18:31.646Z,78.44
2018-11-07T23:21:01.199Z,78.51
2018-11-07T23:23:30.479Z,79.24
2018-11-07T23:26:00.105Z,79.32
2018-11-07T23:28:29.557Z,79.15
2018-11-07T23:30:58.822Z,79.27
2018-11-07T23:33:28.631Z,79.53
2018-11-07T23:35:58.181Z,79.30
2018-11-07T23:38:28.210Z,79.32
2018-11-07T23:40:57.488Z,78.93
2018-11-07T23:43:26.754Z,78.65
2018-11-07T23:45:56.380Z,79.65
2018-11-07T23:48:25.802Z,78.95
2018-11-07T23:50:55.108Z,79.12
2018-11-07T23:53:24.903Z,79.12
2018-11-07T23:55:54.519Z,78.92
2018-11-07T23:58:23.819Z,79.60
